sensor_id;sensor_type;location;lat;lon;timestamp;pressure;altitude;pressure_sealevel;temperature;humidity
82388;BME280;72027;47.420;9.310;2023-12-07T00:00:48;93622.34;;;-1.15;100.00
82388;BME280;72027;47.420;9.310;2023-12-07T00:03:16;93622.34;;;-1.19;100.00
82388;BME280;72027;47.420;9.310;2023-12-07T00:05:43;93624.66;;;-1.21;100.00
82388;BME280;72027;47.420;9.310;2023-12-07T00:08:13;93616.91;;;-1.22;100.00
82388;BME280;72027;47.420;9.310;2023-12-07T00:10:40;93625.44;;;-1.24;99.86
82388;BME280;72027;47.420;9.310;2023-12-07T00:13:08;93618.47;;;-1.25;100.00
82388;BME280;72027;47.420;9.310;2023-12-07T00:15:36;93625.03;;;-1.26;100.00
82388;BME280;72027;47.420;9.310;2023-12-07T00:18:04;93643.28;;;-1.26;100.00
82388;BME280;72027;47.420;9.310;2023-12-07T00:20:32;93640.94;;;-1.28;100.00
82388;BME280;72027;47.420;9.310;2023-12-07T00:22:59;93640.94;;;-1.28;100.00
82388;BME280;72027;47.420;9.310;2023-12-07T00:25:29;93642.13;;;-1.29;100.00
82388;BME280;72027;47.420;9.310;2023-12-07T00:27:56;93640.94;;;-1.28;100.00
82388;BME280;72027;47.420;9.310;2023-12-07T00:30:24;93634.38;;;-1.27;100.00
82388;BME280;72027;47.420;9.310;2023-12-07T00:32:52;93640.19;;;-1.28;100.00
82388;BME280;72027;47.420;9.310;2023-12-07T00:35:20;93643.66;;;-1.31;100.00
82388;BME280;72027;47.420;9.310;2023-12-07T00:37:49;93652.59;;;-1.35;100.00
82388;BME280;72027;47.420;9.310;2023-12-07T00:40:16;93648.72;;;-1.37;100.00
82388;BME280;72027;47.420;9.310;2023-12-07T00:42:45;93643.66;;;-1.42;100.00
82388;BME280;72027;47.420;9.310;2023-12-07T00:45:13;93646.34;;;-1.42;100.00
82388;BME280;72027;47.420;9.310;2023-12-07T00:47:41;93652.56;;;-1.42;100.00
82388;BME280;72027;47.420;9.310;2023-12-07T00:50:12;93650.63;;;-1.41;100.00
82388;BME280;72027;47.420;9.310;2023-12-07T00:52:40;93648.72;;;-1.41;100.00
82388;BME280;72027;47.420;9.310;2023-12-07T00:55:08;93649.06;;;-1.39;100.00
82388;BME280;72027;47.420;9.310;2023-12-07T00:57:37;93648.72;;;-1.37;100.00
82388;BME280;72027;47.420;9.310;2023-12-07T01:00:08;93649.88;;;-1.38;100.00
82388;BME280;72027;47.420;9.310;2023-12-07T01:02:37;93643.66;;;-1.39;100.00
82388;BME280;72027;47.420;9.310;2023-12-07T01:05:04;93640.19;;;-1.36;100.00
82388;BME280;72027;47.420;9.310;2023-12-07T01:07:33;93640.56;;;-1.37;100.00
82388;BME280;72027;47.420;9.310;2023-12-07T01:10:01;93640.19;;;-1.36;100.00
82388;BME280;72027;47.420;9.310;2023-12-07T01:12:29;93639.00;;;-1.35;100.00
82388;BME280;72027;47.420;9.310;2023-12-07T01:14:57;93637.06;;;-1.34;100.00
82388;BME280;72027;47.420;9.310;2023-12-07T01:17:26;93637.06;;;-1.34;100.00
82388;BME280;72027;47.420;9.310;2023-12-07T01:19:54;93639.41;;;-1.33;100.00
82388;BME280;72027;47.420;9.310;2023-12-07T01:22:21;93643.66;;;-1.35;100.00
82388;BME280;72027;47.420;9.310;2023-12-07T01:24:49;93647.94;;;-1.34;100.00
82388;BME280;72027;47.420;9.310;2023-12-07T01:27:17;93647.16;;;-1.35;100.00
82388;BME280;72027;47.420;9.310;2023-12-07T01:29:45;93661.13;;;-1.36;100.00
82388;BME280;72027;47.420;9.310;2023-12-07T01:32:13;93670.44;;;-1.37;100.00
82388;BME280;72027;47.420;9.310;2023-12-07T01:34:42;93677.03;;;-1.42;99.96
82388;BME280;72027;47.420;9.310;2023-12-07T01:37:10;93682.06;;;-1.44;100.00
82388;BME280;72027;47.420;9.310;2023-12-07T01:39:38;93683.59;;;-1.46;100.00
82388;BME280;72027;47.420;9.310;2023-12-07T01:42:07;93687.13;;;-1.46;99.76
82388;BME280;72027;47.420;9.310;2023-12-07T01:44:35;93679.75;;;-1.45;100.00
82388;BME280;72027;47.420;9.310;2023-12-07T01:47:04;93676.63;;;-1.47;100.00
82388;BME280;72027;47.420;9.310;2023-12-07T01:49:32;93677.78;;;-1.48;100.00
82388;BME280;72027;47.420;9.310;2023-12-07T01:52:01;93681.66;;;-1.49;99.84
82388;BME280;72027;47.420;9.310;2023-12-07T01:54:30;93689.44;;;-1.48;100.00
82388;BME280;72027;47.420;9.310;2023-12-07T01:56:58;93692.91;;;-1.47;100.00
82388;BME280;72027;47.420;9.310;2023-12-07T01:59:26;93701.84;;;-1.50;100.00
82388;BME280;72027;47.420;9.310;2023-12-07T02:01:54;93699.50;;;-1.56;100.00
82388;BME280;72027;47.420;9.310;2023-12-07T02:04:22;93699.50;;;-1.56;99.90
82388;BME280;72027;47.420;9.310;2023-12-07T02:06:52;93695.22;;;-1.57;100.00
82388;BME280;72027;47.420;9.310;2023-12-07T02:09:21;93702.97;;;-1.55;100.00
82388;BME280;72027;47.420;9.310;2023-12-07T02:11:49;93704.91;;;-1.56;99.72
82388;BME280;72027;47.420;9.310;2023-12-07T02:14:17;93700.25;;;-1.55;100.00
82388;BME280;72027;47.420;9.310;2023-12-07T02:16:48;93699.50;;;-1.56;99.62
82388;BME280;72027;47.420;9.310;2023-12-07T02:19:33;93698.31;;;-1.55;99.93
82388;BME280;72027;47.420;9.310;2023-12-07T02:22:13;93698.31;;;-1.55;99.95
82388;BME280;72027;47.420;9.310;2023-12-07T02:25:06;93695.59;;;-1.55;100.00
82388;BME280;72027;47.420;9.310;2023-12-07T02:27:38;93692.88;;;-1.55;99.50
82388;BME280;72027;47.420;9.310;2023-12-07T02:30:07;93693.69;;;-1.54;100.00
82388;BME280;72027;47.420;9.310;2023-12-07T02:32:36;93692.88;;;-1.55;100.00
82388;BME280;72027;47.420;9.310;2023-12-07T02:35:04;93699.50;;;-1.56;100.00
82388;BME280;72027;47.420;9.310;2023-12-07T02:37:35;93695.22;;;-1.57;99.82
82388;BME280;72027;47.420;9.310;2023-12-07T02:40:06;93698.31;;;-1.55;100.00
82388;BME280;72027;47.420;9.310;2023-12-07T02:42:39;93692.09;;;-1.55;100.00
82388;BME280;72027;47.420;9.310;2023-12-07T02:45:08;93690.16;;;-1.55;100.00
82388;BME280;72027;47.420;9.310;2023-12-07T02:47:36;93680.84;;;-1.57;99.66
82388;BME280;72027;47.420;9.310;2023-12-07T02:50:06;93681.25;;;-1.59;99.74
82388;BME280;72027;47.420;9.310;2023-12-07T02:52:34;93682.78;;;-1.61;100.00
82388;BME280;72027;47.420;9.310;2023-12-07T02:55:03;93692.09;;;-1.62;100.00
82388;BME280;72027;47.420;9.310;2023-12-07T02:57:31;93691.69;;;-1.64;100.00
82388;BME280;72027;47.420;9.310;2023-12-07T03:00:02;93692.06;;;-1.66;100.00
82388;BME280;72027;47.420;9.310;2023-12-07T03:02:33;93689.34;;;-1.69;100.00
82388;BME280;72027;47.420;9.310;2023-12-07T03:05:01;93694.78;;;-1.69;99.55
82388;BME280;72027;47.420;9.310;2023-12-07T03:07:29;93686.63;;;-1.69;99.92
82388;BME280;72027;47.420;9.310;2023-12-07T03:09:56;93688.56;;;-1.70;100.00
82388;BME280;72027;47.420;9.310;2023-12-07T03:12:24;93692.81;;;-1.72;100.00
82388;BME280;72027;47.420;9.310;2023-12-07T03:14:52;93680.78;;;-1.75;99.77
82388;BME280;72027;47.420;9.310;2023-12-07T03:17:21;93685.81;;;-1.77;99.71
82388;BME280;72027;47.420;9.310;2023-12-07T03:19:49;93682.69;;;-1.79;100.00
82388;BME280;72027;47.420;9.310;2023-12-07T03:22:17;93684.63;;;-1.83;99.87
82388;BME280;72027;47.420;9.310;2023-12-07T03:24:46;93678.78;;;-1.85;100.00
82388;BME280;72027;47.420;9.310;2023-12-07T03:27:14;93683.81;;;-1.87;100.00
82388;BME280;72027;47.420;9.310;2023-12-07T03:29:42;93688.84;;;-1.89;100.00
82388;BME280;72027;47.420;9.310;2023-12-07T03:32:10;93676.81;;;-1.92;99.72
82388;BME280;72027;47.420;9.310;2023-12-07T03:34:39;93674.88;;;-1.91;99.88
82388;BME280;72027;47.420;9.310;2023-12-07T03:37:07;93679.91;;;-1.93;99.63
82388;BME280;72027;47.420;9.310;2023-12-07T03:39:34;93669.06;;;-1.93;99.96
82388;BME280;72027;47.420;9.310;2023-12-07T03:42:02;93664.75;;;-1.94;99.89
82388;BME280;72027;47.420;9.310;2023-12-07T03:44:30;93669.81;;;-1.96;100.00
82388;BME280;72027;47.420;9.310;2023-12-07T03:46:58;93667.84;;;-2.00;99.82
82388;BME280;72027;47.420;9.310;2023-12-07T03:49:26;93671.31;;;-2.03;99.60
82388;BME280;72027;47.420;9.310;2023-12-07T03:51:55;93663.94;;;-2.06;100.00
82388;BME280;72027;47.420;9.310;2023-12-07T03:54:23;93662.34;;;-2.10;99.97
82388;BME280;72027;47.420;9.310;2023-12-07T03:56:51;93664.28;;;-2.14;100.00
82388;BME280;72027;47.420;9.310;2023-12-07T03:59:19;93666.97;;;-2.18;99.97
82388;BME280;72027;47.420;9.310;2023-12-07T04:01:46;93670.44;;;-2.21;100.00
82388;BME280;72027;47.420;9.310;2023-12-07T04:04:14;93675.06;;;-2.25;100.00
82388;BME280;72027;47.420;9.310;2023-12-07T04:06:42;93676.19;;;-2.30;100.00
82388;BME280;72027;47.420;9.310;2023-12-07T04:09:11;93673.06;;;-2.32;100.00
82388;BME280;72027;47.420;9.310;2023-12-07T04:11:39;93678.50;;;-2.32;100.00
82388;BME280;72027;47.420;9.310;2023-12-07T04:14:07;93671.13;;;-2.35;100.00
82388;BME280;72027;47.420;9.310;2023-12-07T04:16:35;93681.97;;;-2.38;99.85
82388;BME280;72027;47.420;9.310;2023-12-07T04:19:03;93683.91;;;-2.39;99.79
82388;BME280;72027;47.420;9.310;2023-12-07T04:21:31;93670.28;;;-2.42;100.00
82388;BME280;72027;47.420;9.310;2023-12-07T04:23:58;93688.50;;;-2.47;99.98
82388;BME280;72027;47.420;9.310;2023-12-07T04:26:27;93677.59;;;-2.50;99.88
82388;BME280;72027;47.420;9.310;2023-12-07T04:28:55;93682.63;;;-2.52;100.00
82388;BME280;72027;47.420;9.310;2023-12-07T04:31:23;93679.13;;;-2.53;100.00
82388;BME280;72027;47.420;9.310;2023-12-07T04:33:51;93684.53;;;-2.56;100.00
82388;BME280;72027;47.420;9.310;2023-12-07T04:36:19;93684.47;;;-2.63;99.91
82388;BME280;72027;47.420;9.310;2023-12-07T04:38:47;93685.97;;;-2.70;99.72
82388;BME280;72027;47.420;9.310;2023-12-07T04:41:15;93691.38;;;-2.73;100.00
82388;BME280;72027;47.420;9.310;2023-12-07T04:43:44;93691.72;;;-2.78;100.00
82388;BME280;72027;47.420;9.310;2023-12-07T04:46:12;93687.81;;;-2.84;99.82
82388;BME280;72027;47.420;9.310;2023-12-07T04:48:41;93688.53;;;-2.88;100.00
82388;BME280;72027;47.420;9.310;2023-12-07T04:51:09;93693.59;;;-2.82;100.00
82388;BME280;72027;47.420;9.310;2023-12-07T04:53:37;93685.88;;;-2.84;100.00
82388;BME280;72027;47.420;9.310;2023-12-07T04:56:05;93682.75;;;-2.82;100.00
82388;BME280;72027;47.420;9.310;2023-12-07T04:58:34;93682.41;;;-2.81;100.00
82388;BME280;72027;47.420;9.310;2023-12-07T05:01:03;93682.81;;;-2.79;100.00
82388;BME280;72027;47.420;9.310;2023-12-07T05:03:31;93680.47;;;-2.77;100.00
82388;BME280;72027;47.420;9.310;2023-12-07T05:05:59;93685.19;;;-2.74;100.00
82388;BME280;72027;47.420;9.310;2023-12-07T05:08:27;93687.16;;;-2.71;100.00
82388;BME280;72027;47.420;9.310;2023-12-07T05:10:55;93684.44;;;-2.67;100.00
82388;BME280;72027;47.420;9.310;2023-12-07T05:13:22;93680.56;;;-2.66;100.00
82388;BME280;72027;47.420;9.310;2023-12-07T05:15:50;93672.44;;;-2.66;99.99
82388;BME280;72027;47.420;9.310;2023-12-07T05:18:19;93679.78;;;-2.67;100.00
82388;BME280;72027;47.420;9.310;2023-12-07T05:20:47;93669.72;;;-2.66;100.00
82388;BME280;72027;47.420;9.310;2023-12-07T05:23:15;93672.81;;;-2.68;100.00
82388;BME280;72027;47.420;9.310;2023-12-07T05:25:44;93672.00;;;-2.72;99.77
82388;BME280;72027;47.420;9.310;2023-12-07T05:28:12;93670.44;;;-2.76;100.00
82388;BME280;72027;47.420;9.310;2023-12-07T05:30:40;93662.66;;;-2.78;99.75
82388;BME280;72027;47.420;9.310;2023-12-07T05:33:10;93671.56;;;-2.81;100.00
82388;BME280;72027;47.420;9.310;2023-12-07T05:35:39;93676.22;;;-2.81;100.00
82388;BME280;72027;47.420;9.310;2023-12-07T05:38:07;93674.63;;;-2.82;99.82
82388;BME280;72027;47.420;9.310;2023-12-07T05:40:35;93678.50;;;-2.83;99.76
82388;BME280;72027;47.420;9.310;2023-12-07T05:43:02;93673.84;;;-2.86;99.85
82388;BME280;72027;47.420;9.310;2023-12-07T05:45:31;93675.78;;;-2.87;100.00
82388;BME280;72027;47.420;9.310;2023-12-07T05:47:59;93671.88;;;-2.90;100.00
82388;BME280;72027;47.420;9.310;2023-12-07T05:50:27;93678.03;;;-2.93;100.00
82388;BME280;72027;47.420;9.310;2023-12-07T05:52:56;93681.91;;;-2.94;100.00
82388;BME280;72027;47.420;9.310;2023-12-07T05:55:24;93670.63;;;-2.99;99.83
82388;BME280;72027;47.420;9.310;2023-12-07T05:57:52;93683.75;;;-3.01;99.33
82388;BME280;72027;47.420;9.310;2023-12-07T06:00:20;93676.38;;;-3.04;99.34
82388;BME280;72027;47.420;9.310;2023-12-07T06:02:48;93672.06;;;-3.09;99.77
82388;BME280;72027;47.420;9.310;2023-12-07T06:05:16;93679.41;;;-3.13;99.78
82388;BME280;72027;47.420;9.310;2023-12-07T06:07:44;93678.63;;;-3.14;100.00
82388;BME280;72027;47.420;9.310;2023-12-07T06:10:13;93680.16;;;-3.13;99.86
82388;BME280;72027;47.420;9.310;2023-12-07T06:12:42;93680.94;;;-3.12;100.00
82388;BME280;72027;47.420;9.310;2023-12-07T06:15:10;93682.13;;;-3.10;99.69
82388;BME280;72027;47.420;9.310;2023-12-07T06:17:37;93676.34;;;-3.08;99.70
82388;BME280;72027;47.420;9.310;2023-12-07T06:20:06;93677.91;;;-3.07;100.00
82388;BME280;72027;47.420;9.310;2023-12-07T06:22:34;93682.13;;;-3.10;99.83
82388;BME280;72027;47.420;9.310;2023-12-07T06:25:01;93676.34;;;-3.08;99.92
82388;BME280;72027;47.420;9.310;2023-12-07T06:27:31;93678.69;;;-3.06;100.00
82388;BME280;72027;47.420;9.310;2023-12-07T06:30:00;93674.44;;;-3.04;100.00
82388;BME280;72027;47.420;9.310;2023-12-07T06:32:28;93673.31;;;-3.03;100.00
82388;BME280;72027;47.420;9.310;2023-12-07T06:34:56;93668.66;;;-3.02;99.81
82388;BME280;72027;47.420;9.310;2023-12-07T06:37:24;93670.19;;;-3.05;99.65
82388;BME280;72027;47.420;9.310;2023-12-07T06:39:52;93665.13;;;-3.06;99.46
82388;BME280;72027;47.420;9.310;2023-12-07T06:42:20;93661.22;;;-3.09;99.43
82388;BME280;72027;47.420;9.310;2023-12-07T06:44:49;93661.22;;;-3.09;99.60
82388;BME280;72027;47.420;9.310;2023-12-07T06:47:17;93666.25;;;-3.11;100.00
82388;BME280;72027;47.420;9.310;2023-12-07T06:49:45;93665.84;;;-3.13;99.59
82388;BME280;72027;47.420;9.310;2023-12-07T06:52:17;93664.28;;;-3.14;99.87
82388;BME280;72027;47.420;9.310;2023-12-07T06:54:45;93667.72;;;-3.17;99.40
82388;BME280;72027;47.420;9.310;2023-12-07T06:57:13;93666.19;;;-3.18;99.32
82388;BME280;72027;47.420;9.310;2023-12-07T06:59:40;93665.78;;;-3.20;99.67
82388;BME280;72027;47.420;9.310;2023-12-07T07:02:09;93661.09;;;-3.23;99.77
82388;BME280;72027;47.420;9.310;2023-12-07T07:04:37;93660.31;;;-3.24;99.79
82388;BME280;72027;47.420;9.310;2023-12-07T07:07:05;93665.75;;;-3.24;98.93
82388;BME280;72027;47.420;9.310;2023-12-07T07:09:33;93659.94;;;-3.22;99.40
82388;BME280;72027;47.420;9.310;2023-12-07T07:12:01;93663.06;;;-3.20;99.74
82388;BME280;72027;47.420;9.310;2023-12-07T07:14:29;93673.16;;;-3.17;98.96
82388;BME280;72027;47.420;9.310;2023-12-07T07:16:56;93673.16;;;-3.17;99.46
82388;BME280;72027;47.420;9.310;2023-12-07T07:19:25;93665.44;;;-3.15;99.60
82388;BME280;72027;47.420;9.310;2023-12-07T07:21:53;93673.31;;;-3.03;99.67
82388;BME280;72027;47.420;9.310;2023-12-07T07:24:21;93671.16;;;-2.83;99.88
82388;BME280;72027;47.420;9.310;2023-12-07T07:26:49;93679.03;;;-2.63;99.45
82388;BME280;72027;47.420;9.310;2023-12-07T07:29:16;93669.16;;;-2.41;98.51
82388;BME280;72027;47.420;9.310;2023-12-07T07:31:44;93672.78;;;-2.19;98.42
82388;BME280;72027;47.420;9.310;2023-12-07T07:34:12;93677.56;;;-1.95;98.24
82388;BME280;72027;47.420;9.310;2023-12-07T07:36:41;93673.41;;;-1.74;96.79
82388;BME280;72027;47.420;9.310;2023-12-07T07:39:09;93670.00;;;-1.53;96.72
82388;BME280;72027;47.420;9.310;2023-12-07T07:41:40;93665.78;;;-1.33;95.81
82388;BME280;72027;47.420;9.310;2023-12-07T07:44:08;93665.47;;;-1.14;94.81
82388;BME280;72027;47.420;9.310;2023-12-07T07:46:36;93675.59;;;-1.00;94.26
82388;BME280;72027;47.420;9.310;2023-12-07T07:49:04;93676.78;;;-0.83;92.24
82388;BME280;72027;47.420;9.310;2023-12-07T07:51:33;93677.19;;;-0.56;92.05
82388;BME280;72027;47.420;9.310;2023-12-07T07:54:02;93677.56;;;-0.29;91.06
82388;BME280;72027;47.420;9.310;2023-12-07T07:56:30;93675.97;;;-0.01;89.95
82388;BME280;72027;47.420;9.310;2023-12-07T07:58:57;93680.19;;;0.25;89.32
82388;BME280;72027;47.420;9.310;2023-12-07T08:01:27;93674.28;;;0.48;88.17
82388;BME280;72027;47.420;9.310;2023-12-07T08:03:54;93671.84;;;0.72;87.03
82388;BME280;72027;47.420;9.310;2023-12-07T08:06:22;93668.66;;;0.91;85.46
82388;BME280;72027;47.420;9.310;2023-12-07T08:08:50;93659.91;;;1.14;84.57
82388;BME280;72027;47.420;9.310;2023-12-07T08:11:19;93658.28;;;1.31;84.05
82388;BME280;72027;47.420;9.310;2023-12-07T08:13:47;93656.66;;;1.37;79.67
82388;BME280;72027;47.420;9.310;2023-12-07T08:16:16;93665.09;;;1.53;80.01
82388;BME280;72027;47.420;9.310;2023-12-07T08:18:44;93669.25;;;1.72;79.80
82388;BME280;72027;47.420;9.310;2023-12-07T08:21:20;93652.66;;;1.94;79.09
82388;BME280;72027;47.420;9.310;2023-12-07T08:23:51;93653.69;;;2.11;79.07
82388;BME280;72027;47.420;9.310;2023-12-07T08:26:20;93656.59;;;2.31;77.09
82388;BME280;72027;47.420;9.310;2023-12-07T08:28:48;93659.53;;;2.47;77.07
82388;BME280;72027;47.420;9.310;2023-12-07T08:31:16;93650.75;;;2.63;76.35
82388;BME280;72027;47.420;9.310;2023-12-07T08:33:44;93655.63;;;2.82;76.06
82388;BME280;72027;47.420;9.310;2023-12-07T08:36:12;93649.50;;;3.02;74.68
82388;BME280;72027;47.420;9.310;2023-12-07T08:39:55;93632.53;;;3.38;72.71
82388;BME280;72027;47.420;9.310;2023-12-07T08:42:23;93638.88;;;3.58;72.39
82388;BME280;72027;47.420;9.310;2023-12-07T08:44:53;93639.81;;;3.75;70.69
82388;BME280;72027;47.420;9.310;2023-12-07T08:47:20;93630.13;;;3.90;70.70
82388;BME280;72027;47.420;9.310;2023-12-07T08:49:48;93627.44;;;4.10;69.58
82388;BME280;72027;47.420;9.310;2023-12-07T08:52:17;93632.19;;;4.30;68.51
82388;BME280;72027;47.420;9.310;2023-12-07T08:54:51;93630.72;;;4.45;68.31
82388;BME280;72027;47.420;9.310;2023-12-07T08:57:20;93624.59;;;4.57;67.64
82388;BME280;72027;47.420;9.310;2023-12-07T08:59:48;93621.69;;;4.64;66.87
82388;BME280;72027;47.420;9.310;2023-12-07T09:02:17;93620.84;;;4.68;66.24
82388;BME280;72027;47.420;9.310;2023-12-07T09:04:55;93623.81;;;4.77;66.92
82388;BME280;72027;47.420;9.310;2023-12-07T09:07:23;93625.34;;;4.78;66.62
82388;BME280;72027;47.420;9.310;2023-12-07T09:09:52;93624.50;;;4.81;66.38
82388;BME280;72027;47.420;9.310;2023-12-07T09:12:21;93619.09;;;4.77;66.00
82388;BME280;72027;47.420;9.310;2023-12-07T09:14:53;93618.06;;;4.71;65.87
82388;BME280;72027;47.420;9.310;2023-12-07T09:17:21;93616.72;;;4.79;66.65
82388;BME280;72027;47.420;9.310;2023-12-07T09:19:49;93611.06;;;4.86;66.38
82388;BME280;72027;47.420;9.310;2023-12-07T09:22:17;93608.78;;;5.01;66.32
82388;BME280;72027;47.420;9.310;2023-12-07T09:24:48;93611.72;;;5.11;65.82
82388;BME280;72027;47.420;9.310;2023-12-07T09:27:16;93613.53;;;5.17;64.13
82388;BME280;72027;47.420;9.310;2023-12-07T09:29:45;93619.75;;;5.21;62.70
82388;BME280;72027;47.420;9.310;2023-12-07T09:32:13;93620.75;;;5.11;62.18
82388;BME280;72027;47.420;9.310;2023-12-07T09:34:42;93627.88;;;5.08;63.18
82388;BME280;72027;47.420;9.310;2023-12-07T09:37:10;93640.38;;;5.10;62.56
82388;BME280;72027;47.420;9.310;2023-12-07T09:39:39;93640.91;;;5.21;62.68
82388;BME280;72027;47.420;9.310;2023-12-07T09:42:07;93636.31;;;5.34;62.10
82388;BME280;72027;47.420;9.310;2023-12-07T09:44:35;93637.44;;;5.53;62.89
82388;BME280;72027;47.420;9.310;2023-12-07T09:47:05;93635.16;;;5.68;62.73
82388;BME280;72027;47.420;9.310;2023-12-07T09:49:33;93641.34;;;5.72;62.59
82388;BME280;72027;47.420;9.310;2023-12-07T09:52:03;93638.31;;;5.50;62.62
82388;BME280;72027;47.420;9.310;2023-12-07T09:54:31;93630.56;;;5.28;63.31
82388;BME280;72027;47.420;9.310;2023-12-07T09:56:59;93625.97;;;5.05;63.97
82388;BME280;72027;47.420;9.310;2023-12-07T09:59:27;93619.22;;;4.90;63.93
82388;BME280;72027;47.420;9.310;2023-12-07T10:01:55;93606.09;;;4.81;64.81
82388;BME280;72027;47.420;9.310;2023-12-07T10:04:24;93605.41;;;4.94;64.67
82388;BME280;72027;47.420;9.310;2023-12-07T10:06:53;93599.63;;;5.08;64.88
82388;BME280;72027;47.420;9.310;2023-12-07T10:09:22;93601.91;;;5.29;63.83
82388;BME280;72027;47.420;9.310;2023-12-07T10:12:02;93588.59;;;5.44;62.71
82388;BME280;72027;47.420;9.310;2023-12-07T10:14:31;93592.91;;;5.62;62.65
82388;BME280;72027;47.420;9.310;2023-12-07T10:16:59;93593.22;;;5.80;61.85
82388;BME280;72027;47.420;9.310;2023-12-07T10:19:28;93591.00;;;5.75;60.90
82388;BME280;72027;47.420;9.310;2023-12-07T10:21:57;93585.16;;;5.73;62.19
82388;BME280;72027;47.420;9.310;2023-12-07T10:24:26;93592.38;;;5.83;62.15
82388;BME280;72027;47.420;9.310;2023-12-07T10:26:54;93596.91;;;5.90;61.29
82388;BME280;72027;47.420;9.310;2023-12-07T10:29:28;93601.22;;;6.07;60.97
82388;BME280;72027;47.420;9.310;2023-12-07T10:32:00;93582.03;;;6.20;60.25
82388;BME280;72027;47.420;9.310;2023-12-07T10:34:31;93585.50;;;6.37;59.74
82388;BME280;72027;47.420;9.310;2023-12-07T10:37:00;93575.06;;;6.45;58.26
82388;BME280;72027;47.420;9.310;2023-12-07T10:39:31;93572.44;;;6.41;57.48
82388;BME280;72027;47.420;9.310;2023-12-07T10:42:02;93563.09;;;6.22;57.60
82388;BME280;72027;47.420;9.310;2023-12-07T10:44:31;93552.59;;;6.33;59.25
82388;BME280;72027;47.420;9.310;2023-12-07T10:47:01;93540.09;;;6.58;58.72
82388;BME280;72027;47.420;9.310;2023-12-07T10:49:31;93542.78;;;6.74;58.38
82388;BME280;72027;47.420;9.310;2023-12-07T10:52:06;93528.91;;;6.91;58.69
82388;BME280;72027;47.420;9.310;2023-12-07T10:54:38;93535.09;;;7.08;57.52
82388;BME280;72027;47.420;9.310;2023-12-07T10:57:09;93539.19;;;7.16;57.11
82388;BME280;72027;47.420;9.310;2023-12-07T10:59:42;93525.94;;;7.11;56.36
82388;BME280;72027;47.420;9.310;2023-12-07T11:02:12;93519.56;;;7.14;57.20
82388;BME280;72027;47.420;9.310;2023-12-07T11:04:45;93522.09;;;7.08;57.71
82388;BME280;72027;47.420;9.310;2023-12-07T11:07:16;93519.00;;;7.06;58.21
82388;BME280;72027;47.420;9.310;2023-12-07T11:09:52;93512.41;;;7.16;58.53
82388;BME280;72027;47.420;9.310;2023-12-07T11:12:29;93517.44;;;7.31;58.17
82388;BME280;72027;47.420;9.310;2023-12-07T11:14:59;93510.50;;;7.39;56.36
82388;BME280;72027;47.420;9.310;2023-12-07T11:17:26;93509.03;;;7.47;56.49
82388;BME280;72027;47.420;9.310;2023-12-07T11:19:56;93507.81;;;7.61;56.35
82388;BME280;72027;47.420;9.310;2023-12-07T11:22:24;93509.22;;;7.65;56.49
82388;BME280;72027;47.420;9.310;2023-12-07T11:24:54;93503.06;;;7.74;55.57
82388;BME280;72027;47.420;9.310;2023-12-07T11:27:24;93512.63;;;7.82;56.29
82388;BME280;72027;47.420;9.310;2023-12-07T11:29:52;93513.16;;;7.90;56.23
82388;BME280;72027;47.420;9.310;2023-12-07T11:32:20;93512.34;;;7.89;55.94
82388;BME280;72027;47.420;9.310;2023-12-07T11:34:53;93514.59;;;7.82;55.54
82388;BME280;72027;47.420;9.310;2023-12-07T11:37:23;93510.78;;;7.66;55.30
82388;BME280;72027;47.420;9.310;2023-12-07T11:39:54;93500.97;;;7.53;55.34
82388;BME280;72027;47.420;9.310;2023-12-07T11:42:22;93494.50;;;7.34;55.35
82388;BME280;72027;47.420;9.310;2023-12-07T11:44:51;93493.44;;;7.18;56.16
82388;BME280;72027;47.420;9.310;2023-12-07T11:47:20;93490.56;;;7.09;56.75
82388;BME280;72027;47.420;9.310;2023-12-07T11:49:48;93481.66;;;7.05;57.97
82388;BME280;72027;47.420;9.310;2023-12-07T11:52:18;93478.56;;;7.03;58.12
82388;BME280;72027;47.420;9.310;2023-12-07T11:54:49;93474.84;;;6.97;58.93
82388;BME280;72027;47.420;9.310;2023-12-07T11:57:17;93473.28;;;6.83;59.38
82388;BME280;72027;47.420;9.310;2023-12-07T11:59:46;93469.41;;;6.80;60.21
82388;BME280;72027;47.420;9.310;2023-12-07T12:02:14;93469.41;;;6.80;60.56
82388;BME280;72027;47.420;9.310;2023-12-07T12:04:43;93459.97;;;6.69;60.17
82388;BME280;72027;47.420;9.310;2023-12-07T12:07:11;93456.22;;;6.63;61.29
82388;BME280;72027;47.420;9.310;2023-12-07T12:09:39;93445.00;;;6.57;62.44
82388;BME280;72027;47.420;9.310;2023-12-07T12:12:08;93432.53;;;6.52;62.81
82388;BME280;72027;47.420;9.310;2023-12-07T12:14:36;93429.44;;;6.37;63.29
82388;BME280;72027;47.420;9.310;2023-12-07T12:17:04;93421.28;;;6.21;64.68
82388;BME280;72027;47.420;9.310;2023-12-07T12:19:32;93412.56;;;6.10;64.71
82388;BME280;72027;47.420;9.310;2023-12-07T12:22:02;93411.59;;;5.87;65.08
82388;BME280;72027;47.420;9.310;2023-12-07T12:24:32;93409.59;;;5.75;64.69
82388;BME280;72027;47.420;9.310;2023-12-07T12:26:59;93410.88;;;5.70;64.64
82388;BME280;72027;47.420;9.310;2023-12-07T12:29:29;93411.31;;;5.69;63.19
82388;BME280;72027;47.420;9.310;2023-12-07T12:31:59;93405.50;;;5.67;63.19
82388;BME280;72027;47.420;9.310;2023-12-07T12:34:28;93399.56;;;5.68;63.45
82388;BME280;72027;47.420;9.310;2023-12-07T12:36:59;93406.91;;;5.71;63.12
82388;BME280;72027;47.420;9.310;2023-12-07T12:39:27;93399.56;;;5.68;62.51
82388;BME280;72027;47.420;9.310;2023-12-07T12:41:58;93383.81;;;5.69;61.99
82388;BME280;72027;47.420;9.310;2023-12-07T12:44:30;93384.84;;;5.75;62.62
82388;BME280;72027;47.420;9.310;2023-12-07T12:47:01;93380.69;;;5.83;62.02
82388;BME280;72027;47.420;9.310;2023-12-07T12:49:35;93379.97;;;5.95;62.86
82388;BME280;72027;47.420;9.310;2023-12-07T12:52:03;93371.19;;;6.01;63.08
82388;BME280;72027;47.420;9.310;2023-12-07T12:54:32;93366.47;;;6.01;62.26
82388;BME280;72027;47.420;9.310;2023-12-07T12:56:59;93364.69;;;5.94;61.95
82388;BME280;72027;47.420;9.310;2023-12-07T12:59:29;93362.31;;;5.93;62.44
82388;BME280;72027;47.420;9.310;2023-12-07T13:01:57;93364.31;;;5.92;63.11
82388;BME280;72027;47.420;9.310;2023-12-07T13:04:24;93360.72;;;5.95;62.84
82388;BME280;72027;47.420;9.310;2023-12-07T13:06:52;93360.28;;;5.97;62.55
82388;BME280;72027;47.420;9.310;2023-12-07T13:09:20;93363.38;;;5.99;62.40